Time;durP1;ratioP1;P1;durP2;ratioP2;P2;SDS_P1;SDS_P2;PMS_P1;PMS_P2;Temp;Humidity;BMP_temperature;BMP_pressure;BME280_temperature;BME280_humidity;BME280_pressure;Samples;Min_cycle;Max_cycle;Signal;HPM_P1;HPM_P2
2021/07/17 00:01:54;;;;;;;23.50;18.40;;;;;;;;;;5055852;28;20470;-67
2021/07/17 00:04:20;;;;;;;22.77;18.17;;;;;;;;;;5054464;28;20040;-68
2021/07/17 00:06:46;;;;;;;22.60;16.98;;;;;;;;;;5055700;28;20025;-69
2021/07/17 00:09:13;;;;;;;20.45;16.65;;;;;;;;;;5055713;28;20070;-67
2021/07/17 00:11:39;;;;;;;20.92;17.83;;;;;;;;;;5054384;28;20060;-67
2021/07/17 00:14:05;;;;;;;23.15;17.48;;;;;;;;;;5055538;28;20480;-69
2021/07/17 00:16:31;;;;;;;22.83;17.58;;;;;;;;;;5055450;28;20123;-66
2021/07/17 00:18:58;;;;;;;24.70;17.52;;;;;;;;;;5054175;28;20052;-66
2021/07/17 00:21:24;;;;;;;22.30;17.83;;;;;;;;;;5054198;28;20086;-71
2021/07/17 00:23:52;;;;;;;27.90;19.05;;;;;;;;;;5055315;28;20495;-67
2021/07/17 00:26:18;;;;;;;28.45;19.05;;;;;;;;;;5053438;28;20063;-67
2021/07/17 00:28:44;;;;;;;24.40;18.40;;;;;;;;;;5055368;28;20524;-67
2021/07/17 00:31:10;;;;;;;26.85;18.38;;;;;;;;;;5055287;28;20029;-67
2021/07/17 00:33:37;;;;;;;24.63;17.45;;;;;;;;;;5055269;28;20017;-67
2021/07/17 00:36:03;;;;;;;24.48;18.92;;;;;;;;;;5055100;28;20032;-67
2021/07/17 00:38:29;;;;;;;28.70;19.23;;;;;;;;;;5053764;28;20044;-66
2021/07/17 00:40:56;;;;;;;24.13;18.90;;;;;;;;;;5055034;28;20017;-68
2021/07/17 00:43:22;;;;;;;24.08;18.65;;;;;;;;;;5055075;28;20107;-68
2021/07/17 00:45:48;;;;;;;25.20;19.00;;;;;;;;;;5054643;28;20433;-68
2021/07/17 00:48:15;;;;;;;24.92;19.58;;;;;;;;;;5053418;28;20029;-67
2021/07/17 00:50:42;;;;;;;26.58;19.25;;;;;;;;;;5054932;28;20021;-68
2021/07/17 00:53:08;;;;;;;21.83;17.23;;;;;;;;;;5054896;28;20424;-68
2021/07/17 00:55:39;;;;;;;23.55;18.73;;;;;;;;;;5054790;28;20021;-68
2021/07/17 00:58:06;;;;;;;24.45;18.13;;;;;;;;;;5054739;28;20128;-66
2021/07/17 01:00:32;;;;;;;28.17;20.70;;;;;;;;;;5054656;28;20112;-70
2021/07/17 01:03:05;;;;;;;30.60;21.10;;;;;;;;;;5053353;28;20127;-68
2021/07/17 01:05:32;;;;;;;27.02;20.25;;;;;;;;;;5054636;28;20021;-69
2021/07/17 01:07:58;;;;;;;26.92;19.73;;;;;;;;;;5054528;28;20116;-68
2021/07/17 01:10:25;;;;;;;23.10;19.33;;;;;;;;;;5054487;28;20021;-67
2021/07/17 01:12:51;;;;;;;26.65;20.48;;;;;;;;;;5053189;28;20036;-68
2021/07/17 01:15:18;;;;;;;29.55;20.60;;;;;;;;;;5054362;28;20017;-68
2021/07/17 01:17:45;;;;;;;24.63;18.85;;;;;;;;;;5054315;28;20032;-68
2021/07/17 01:20:13;;;;;;;22.63;18.70;;;;;;;;;;5054303;28;20108;-69
2021/07/17 01:22:40;;;;;;;29.10;19.60;;;;;;;;;;5052983;28;20031;-67
2021/07/17 01:25:07;;;;;;;29.00;19.92;;;;;;;;;;5054226;28;20104;-69
2021/07/17 01:27:34;;;;;;;27.48;20.77;;;;;;;;;;5054193;28;20049;-70
2021/07/17 01:30:01;;;;;;;25.17;18.92;;;;;;;;;;5053825;28;20024;-67
2021/07/17 01:32:27;;;;;;;25.63;18.45;;;;;;;;;;5054128;28;20017;-67
2021/07/17 01:34:53;;;;;;;28.48;19.92;;;;;;;;;;5054084;28;20053;-70
2021/07/17 01:37:20;;;;;;;26.15;19.45;;;;;;;;;;5053906;28;20035;-67
2021/07/17 01:39:46;;;;;;;23.15;19.25;;;;;;;;;;5053911;28;20017;-67
2021/07/17 01:42:12;;;;;;;29.23;19.98;;;;;;;;;;5053885;28;20049;-68
2021/07/17 01:44:42;;;;;;;25.55;19.60;;;;;;;;;;5053881;28;20049;-69
2021/07/17 01:47:08;;;;;;;29.17;19.70;;;;;;;;;;5053369;28;20130;-68
2021/07/17 01:49:34;;;;;;;20.42;17.35;;;;;;;;;;5052182;28;20162;-69
2021/07/17 01:52:01;;;;;;;27.33;18.70;;;;;;;;;;5052340;28;20025;-68
2021/07/17 01:54:31;;;;;;;21.95;17.40;;;;;;;;;;5053736;28;20104;-69
2021/07/17 01:56:57;;;;;;;24.67;18.90;;;;;;;;;;5053607;28;20040;-68
2021/07/17 01:59:23;;;;;;;28.45;18.67;;;;;;;;;;5053816;28;20537;-70
2021/07/17 02:01:50;;;;;;;26.60;20.42;;;;;;;;;;5053611;28;20033;-68
2021/07/17 02:04:16;;;;;;;25.70;19.40;;;;;;;;;;5053517;28;20491;-71
2021/07/17 02:06:42;;;;;;;23.23;18.48;;;;;;;;;;5053508;28;20017;-67
2021/07/17 02:09:08;;;;;;;25.95;19.25;;;;;;;;;;5052103;28;20120;-65
2021/07/17 02:11:34;;;;;;;23.55;19.23;;;;;;;;;;5053381;28;20017;-68
2021/07/17 02:14:01;;;;;;;23.88;18.35;;;;;;;;;;5053346;28;20112;-68
2021/07/17 02:16:27;;;;;;;24.38;18.33;;;;;;;;;;5051657;28;20082;-68
2021/07/17 02:18:53;;;;;;;21.13;18.40;;;;;;;;;;5053245;28;20089;-68
2021/07/17 02:21:20;;;;;;;23.02;18.08;;;;;;;;;;5053227;28;20100;-66
2021/07/17 02:23:47;;;;;;;22.77;18.30;;;;;;;;;;5051971;28;20032;-67
2021/07/17 02:26:13;;;;;;;22.88;18.38;;;;;;;;;;5053177;28;20021;-68
2021/07/17 02:28:41;;;;;;;22.55;17.45;;;;;;;;;;5053176;28;20029;-69
2021/07/17 02:31:07;;;;;;;21.90;17.25;;;;;;;;;;5053178;28;20036;-71
2021/07/17 02:33:33;;;;;;;21.70;18.83;;;;;;;;;;5052876;28;20027;-67
2021/07/17 02:36:00;;;;;;;20.42;17.45;;;;;;;;;;5052920;28;20025;-69
2021/07/17 02:38:26;;;;;;;20.90;15.93;;;;;;;;;;5051728;28;20079;-67
2021/07/17 02:40:52;;;;;;;21.38;15.88;;;;;;;;;;5051413;28;20029;-66
2021/07/17 02:43:20;;;;;;;18.23;15.93;;;;;;;;;;5052924;28;20027;-68
2021/07/17 02:45:46;;;;;;;20.02;15.68;;;;;;;;;;5052754;28;20017;-68
2021/07/17 02:48:12;;;;;;;16.90;15.10;;;;;;;;;;5052923;28;20041;-69
2021/07/17 02:50:40;;;;;;;18.15;15.30;;;;;;;;;;5056473;28;20053;-68
2021/07/17 02:53:06;;;;;;;17.27;15.48;;;;;;;;;;5059503;28;20143;-69
2021/07/17 02:55:32;;;;;;;21.17;16.55;;;;;;;;;;5058195;28;20111;-70
2021/07/17 02:57:58;;;;;;;19.73;16.80;;;;;;;;;;5058076;28;20119;-70
2021/07/17 03:00:25;;;;;;;21.48;16.30;;;;;;;;;;5059735;28;20116;-71
2021/07/17 03:02:51;;;;;;;22.77;16.20;;;;;;;;;;5059167;28;20436;-69
2021/07/17 03:05:17;;;;;;;20.88;16.20;;;;;;;;;;5059415;28;20021;-69
2021/07/17 03:07:43;;;;;;;19.85;16.13;;;;;;;;;;5059394;28;20029;-67
2021/07/17 03:10:10;;;;;;;21.00;16.42;;;;;;;;;;5059085;28;20370;-69
2021/07/17 03:12:36;;;;;;;21.45;16.73;;;;;;;;;;5059365;28;20481;-68
2021/07/17 03:15:03;;;;;;;23.02;16.88;;;;;;;;;;5059332;28;20427;-69
2021/07/17 03:17:29;;;;;;;17.77;15.93;;;;;;;;;;5059219;28;20029;-68
2021/07/17 03:19:55;;;;;;;20.70;17.20;;;;;;;;;;5059329;28;20021;-69
2021/07/17 03:22:22;;;;;;;18.20;16.27;;;;;;;;;;5059286;28;20100;-68
2021/07/17 03:24:49;;;;;;;22.67;15.80;;;;;;;;;;5059305;28;20057;-68
2021/07/17 03:27:15;;;;;;;19.33;16.02;;;;;;;;;;5058954;28;20454;-66
2021/07/17 03:29:41;;;;;;;18.45;16.23;;;;;;;;;;5059248;28;20037;-66
2021/07/17 03:32:07;;;;;;;22.67;18.27;;;;;;;;;;5059200;28;20107;-67
2021/07/17 03:34:33;;;;;;;21.23;17.17;;;;;;;;;;5057937;28;20373;-68
2021/07/17 03:36:59;;;;;;;20.63;18.13;;;;;;;;;;5057836;28;20163;-68
2021/07/17 03:39:26;;;;;;;21.13;17.52;;;;;;;;;;5059128;28;20107;-68
2021/07/17 03:41:52;;;;;;;20.63;17.75;;;;;;;;;;5059426;28;20137;-67
2021/07/17 03:44:20;;;;;;;25.02;17.60;;;;;;;;;;5059120;28;20057;-66
2021/07/17 03:46:46;;;;;;;22.67;17.42;;;;;;;;;;5058786;28;20060;-69
2021/07/17 03:49:13;;;;;;;23.58;17.80;;;;;;;;;;5059020;28;20125;-66
2021/07/17 03:51:39;;;;;;;21.73;17.52;;;;;;;;;;5059030;28;20477;-68
2021/07/17 03:54:05;;;;;;;20.00;16.48;;;;;;;;;;5057518;28;20116;-68
2021/07/17 03:56:31;;;;;;;20.73;17.90;;;;;;;;;;5058943;28;20032;-68
2021/07/17 03:58:58;;;;;;;25.17;17.30;;;;;;;;;;5058957;28;20067;-67
2021/07/17 04:01:24;;;;;;;23.98;18.08;;;;;;;;;;5056751;28;20108;-69
2021/07/17 04:03:51;;;;;;;23.00;18.40;;;;;;;;;;5055769;28;20108;-70
2021/07/17 04:06:17;;;;;;;22.45;17.90;;;;;;;;;;5055781;28;20111;-67
2021/07/17 04:08:43;;;;;;;19.63;17.33;;;;;;;;;;5055962;28;20104;-68
2021/07/17 04:11:09;;;;;;;23.25;16.63;;;;;;;;;;5054283;28;20373;-67
2021/07/17 04:13:35;;;;;;;20.95;17.45;;;;;;;;;;5055621;28;20029;-67
2021/07/17 04:16:01;;;;;;;20.17;17.13;;;;;;;;;;5055455;28;20131;-67
2021/07/17 04:18:28;;;;;;;20.67;16.77;;;;;;;;;;5054229;28;20125;-69
2021/07/17 04:20:54;;;;;;;21.52;17.02;;;;;;;;;;5055471;28;20108;-66
2021/07/17 04:23:20;;;;;;;23.05;18.38;;;;;;;;;;5054142;28;20051;-68
2021/07/17 04:25:46;;;;;;;21.85;17.60;;;;;;;;;;5055412;28;20517;-69
2021/07/17 04:28:12;;;;;;;23.52;19.52;;;;;;;;;;5054072;28;20029;-69
2021/07/17 04:30:39;;;;;;;22.60;17.65;;;;;;;;;;5054010;28;20020;-69
2021/07/17 04:33:05;;;;;;;21.30;18.35;;;;;;;;;;5053916;28;20098;-68
2021/07/17 04:35:31;;;;;;;22.75;19.15;;;;;;;;;;5055270;28;20068;-69
2021/07/17 04:37:57;;;;;;;25.35;19.85;;;;;;;;;;5053804;28;20482;-67
2021/07/17 04:40:24;;;;;;;28.48;18.88;;;;;;;;;;5055373;28;20143;-68
2021/07/17 04:42:50;;;;;;;23.63;19.08;;;;;;;;;;5055084;28;20032;-68
2021/07/17 04:45:16;;;;;;;25.10;19.00;;;;;;;;;;5055041;28;20025;-68
2021/07/17 04:47:43;;;;;;;23.13;18.38;;;;;;;;;;5053246;28;20387;-69
2021/07/17 04:50:09;;;;;;;24.20;19.90;;;;;;;;;;5054952;28;20028;-71
2021/07/17 04:52:38;;;;;;;26.75;20.25;;;;;;;;;;5054898;28;20025;-66
2021/07/17 04:55:05;;;;;;;30.48;20.50;;;;;;;;;;5053525;28;20021;-69
2021/07/17 04:57:31;;;;;;;24.83;19.65;;;;;;;;;;5053409;28;20036;-68
2021/07/17 04:59:57;;;;;;;27.10;20.77;;;;;;;;;;5054759;28;20513;-69
2021/07/17 05:02:23;;;;;;;24.52;18.75;;;;;;;;;;5054692;28;20040;-70
2021/07/17 05:04:50;;;;;;;25.20;19.13;;;;;;;;;;5054637;28;20109;-69
2021/07/17 05:07:16;;;;;;;24.63;19.05;;;;;;;;;;5054611;28;20162;-67
2021/07/17 05:09:42;;;;;;;24.95;18.63;;;;;;;;;;5053175;28;20536;-65
2021/07/17 05:12:08;;;;;;;26.58;19.10;;;;;;;;;;5053174;28;20084;-66
2021/07/17 05:14:35;;;;;;;25.55;19.83;;;;;;;;;;5053920;28;20103;-68
2021/07/17 05:17:01;;;;;;;27.50;20.38;;;;;;;;;;5054343;28;20036;-67
2021/07/17 05:19:27;;;;;;;26.90;21.92;;;;;;;;;;5053045;28;20113;-67
2021/07/17 05:21:53;;;;;;;24.08;19.38;;;;;;;;;;5053008;28;20116;-68
2021/07/17 05:24:20;;;;;;;25.10;18.02;;;;;;;;;;5054259;28;20095;-69
2021/07/17 05:26:46;;;;;;;26.08;19.73;;;;;;;;;;5054288;28;20017;-68
2021/07/17 05:29:12;;;;;;;24.48;19.23;;;;;;;;;;5052886;28;20028;-70
2021/07/17 05:31:38;;;;;;;21.95;18.25;;;;;;;;;;5054358;28;20044;-69
2021/07/17 05:34:04;;;;;;;23.48;19.15;;;;;;;;;;5054405;28;20036;-69
2021/07/17 05:36:31;;;;;;;25.40;18.63;;;;;;;;;;5052664;28;20159;-67
2021/07/17 05:38:57;;;;;;;22.15;17.23;;;;;;;;;;5054284;28;20365;-68
2021/07/17 05:41:23;;;;;;;23.75;19.48;;;;;;;;;;5053922;28;20052;-68
2021/07/17 05:43:49;;;;;;;24.33;18.23;;;;;;;;;;5053857;28;20033;-69
2021/07/17 05:46:16;;;;;;;26.38;18.30;;;;;;;;;;5053621;28;20056;-67
2021/07/17 05:48:42;;;;;;;21.73;17.33;;;;;;;;;;5053846;28;20113;-68
2021/07/17 05:51:08;;;;;;;22.65;17.05;;;;;;;;;;5054059;28;20068;-67
2021/07/17 05:53:35;;;;;;;18.77;16.77;;;;;;;;;;5053765;28;20017;-66
2021/07/17 05:56:01;;;;;;;20.50;16.33;;;;;;;;;;5053715;28;20025;-69
2021/07/17 05:58:28;;;;;;;17.73;14.93;;;;;;;;;;5053638;28;20037;-68
2021/07/17 06:00:54;;;;;;;17.70;14.68;;;;;;;;;;5053594;28;20017;-70
2021/07/17 06:03:20;;;;;;;20.15;15.48;;;;;;;;;;5053537;28;20110;-67
2021/07/17 06:05:47;;;;;;;18.25;15.27;;;;;;;;;;5053537;28;20017;-67
2021/07/17 06:08:13;;;;;;;20.80;15.90;;;;;;;;;;5052147;28;20057;-69
2021/07/17 06:10:39;;;;;;;19.30;14.90;;;;;;;;;;5053414;28;20096;-69
2021/07/17 06:13:06;;;;;;;16.75;14.60;;;;;;;;;;5052077;28;20021;-69
2021/07/17 06:15:32;;;;;;;19.27;15.38;;;;;;;;;;5053350;28;20029;-68
2021/07/17 06:17:59;;;;;;;20.00;15.80;;;;;;;;;;5053279;28;20029;-67
2021/07/17 06:20:25;;;;;;;20.98;16.52;;;;;;;;;;5053214;28;20025;-68
2021/07/17 06:22:51;;;;;;;24.55;17.42;;;;;;;;;;5051821;28;20108;-69
2021/07/17 06:25:17;;;;;;;21.02;17.20;;;;;;;;;;5052563;28;20056;-66
2021/07/17 06:27:43;;;;;;;22.52;16.98;;;;;;;;;;5051807;28;20478;-70
2021/07/17 06:30:10;;;;;;;12.30;7.38;;;;;;;;;;5051849;28;20116;-69
2021/07/17 06:32:36;;;;;;;11.07;7.32;;;;;;;;;;5053043;28;20017;-68
2021/07/17 06:35:03;;;;;;;17.10;12.95;;;;;;;;;;5053060;28;20029;-70
2021/07/17 06:37:29;;;;;;;14.20;10.18;;;;;;;;;;5042334;28;20025;-69
2021/07/17 06:39:55;;;;;;;19.73;12.55;;;;;;;;;;5032957;28;20052;-69
2021/07/17 06:42:21;;;;;;;19.00;11.63;;;;;;;;;;5043381;28;20159;-72
2021/07/17 06:44:48;;;;;;;17.90;14.40;;;;;;;;;;5051865;28;20377;-69
2021/07/17 06:47:14;;;;;;;21.17;15.77;;;;;;;;;;5052270;28;20449;-68
2021/07/17 06:49:40;;;;;;;18.80;13.43;;;;;;;;;;5052810;28;20028;-70
2021/07/17 06:52:06;;;;;;;19.73;15.65;;;;;;;;;;5052547;28;20082;-70
2021/07/17 06:54:32;;;;;;;26.42;18.40;;;;;;;;;;5051415;28;20450;-70
2021/07/17 06:56:59;;;;;;;28.17;20.20;;;;;;;;;;5052758;28;20033;-69
2021/07/17 06:59:25;;;;;;;25.20;18.55;;;;;;;;;;5052814;28;20104;-69
2021/07/17 07:01:51;;;;;;;24.65;18.70;;;;;;;;;;5052720;28;20029;-70
2021/07/17 07:04:18;;;;;;;26.58;20.40;;;;;;;;;;5052437;28;20111;-71
2021/07/17 07:06:44;;;;;;;25.85;20.75;;;;;;;;;;5052680;28;20025;-68
2021/07/17 07:09:10;;;;;;;34.97;25.88;;;;;;;;;;5052562;28;20024;-70
2021/07/17 07:11:39;;;;;;;34.53;25.83;;;;;;;;;;5052440;28;20029;-72
2021/07/17 07:14:06;;;;;;;31.50;24.45;;;;;;;;;;5052724;28;20021;-68
2021/07/17 07:16:32;;;;;;;28.45;21.58;;;;;;;;;;5052671;28;20047;-69
2021/07/17 07:18:59;;;;;;;33.90;23.23;;;;;;;;;;5051366;28;20033;-69
2021/07/17 07:21:25;;;;;;;34.88;25.08;;;;;;;;;;5052569;28;20052;-70
2021/07/17 07:23:51;;;;;;;38.38;27.10;;;;;;;;;;5051241;28;20350;-69
2021/07/17 07:26:17;;;;;;;42.22;31.88;;;;;;;;;;5050987;28;20119;-69
2021/07/17 07:28:43;;;;;;;38.17;28.38;;;;;;;;;;5052799;28;20182;-69
2021/07/17 07:31:09;;;;;;;35.08;27.85;;;;;;;;;;5050989;28;20060;-69
2021/07/17 07:33:36;;;;;;;41.00;25.50;;;;;;;;;;5051207;28;20410;-70
2021/07/17 07:36:03;;;;;;;45.42;28.10;;;;;;;;;;5053352;28;20021;-70
2021/07/17 07:38:29;;;;;;;37.83;26.73;;;;;;;;;;5056030;28;20041;-69
2021/07/17 07:40:55;;;;;;;42.78;29.70;;;;;;;;;;5054388;28;20049;-70
2021/07/17 07:43:21;;;;;;;50.58;31.02;;;;;;;;;;5038328;28;20037;-70
2021/07/17 07:45:48;;;;;;;34.08;27.20;;;;;;;;;;5033486;28;20021;-70
2021/07/17 07:48:15;;;;;;;37.38;26.83;;;;;;;;;;5034891;28;20028;-70
2021/07/17 07:50:41;;;;;;;40.28;28.27;;;;;;;;;;5050397;28;20107;-72
2021/07/17 07:53:07;;;;;;;44.72;30.23;;;;;;;;;;5055804;28;20021;-71
2021/07/17 07:55:33;;;;;;;43.63;28.15;;;;;;;;;;5056001;28;20484;-70
2021/07/17 07:57:59;;;;;;;38.92;27.77;;;;;;;;;;5055761;28;20036;-69
2021/07/17 08:00:25;;;;;;;38.42;29.83;;;;;;;;;;5054558;28;20037;-71
2021/07/17 08:02:52;;;;;;;42.08;27.90;;;;;;;;;;5055074;28;20484;-69
2021/07/17 08:05:18;;;;;;;45.00;31.23;;;;;;;;;;5053164;28;20355;-70
2021/07/17 08:07:44;;;;;;;42.45;31.08;;;;;;;;;;5055447;28;20028;-71
2021/07/17 08:10:11;;;;;;;45.53;31.15;;;;;;;;;;5054168;28;20025;-68
2021/07/17 08:12:37;;;;;;;47.80;31.65;;;;;;;;;;5043726;28;20032;-69
2021/07/17 08:15:03;;;;;;;41.13;29.80;;;;;;;;;;5030448;28;20022;-70
2021/07/17 08:17:30;;;;;;;43.85;31.38;;;;;;;;;;5015725;28;20534;-70
2021/07/17 08:19:56;;;;;;;46.88;31.17;;;;;;;;;;5030901;28;20116;-68
2021/07/17 08:22:22;;;;;;;41.58;28.50;;;;;;;;;;5015750;28;20022;-70
2021/07/17 08:24:48;;;;;;;39.92;30.35;;;;;;;;;;5015639;28;20025;-71
2021/07/17 08:27:15;;;;;;;44.88;30.38;;;;;;;;;;5015293;28;20379;-71
2021/07/17 08:29:41;;;;;;;44.10;31.75;;;;;;;;;;5030795;28;20049;-69
2021/07/17 08:32:07;;;;;;;39.03;29.05;;;;;;;;;;5015517;28;20022;-70
2021/07/17 08:34:33;;;;;;;41.60;31.83;;;;;;;;;;5030642;28;20113;-69
2021/07/17 08:37:00;;;;;;;48.90;31.10;;;;;;;;;;5015431;28;20091;-70
2021/07/17 08:39:26;;;;;;;48.08;31.52;;;;;;;;;;5015371;28;20348;-69
2021/07/17 08:41:53;;;;;;;48.13;32.22;;;;;;;;;;5015349;28;20105;-69
2021/07/17 08:44:19;;;;;;;50.70;36.85;;;;;;;;;;5030331;28;20537;-71
2021/07/17 08:46:46;;;;;;;48.83;36.20;;;;;;;;;;5030048;28;20384;-71
2021/07/17 08:49:13;;;;;;;48.63;35.72;;;;;;;;;;5014559;28;20036;-70
2021/07/17 08:51:39;;;;;;;47.55;37.10;;;;;;;;;;5015170;28;20025;-69
2021/07/17 08:54:06;;;;;;;50.35;35.60;;;;;;;;;;5015108;28;20168;-72
2021/07/17 08:56:32;;;;;;;44.13;35.17;;;;;;;;;;5030193;28;20491;-70
2021/07/17 08:58:59;;;;;;;45.95;33.78;;;;;;;;;;5030029;28;20030;-69
2021/07/17 09:01:25;;;;;;;43.72;36.20;;;;;;;;;;5030155;28;20038;-68
2021/07/17 09:03:51;;;;;;;48.40;33.45;;;;;;;;;;5014893;28;20026;-70
2021/07/17 09:06:17;;;;;;;42.95;32.33;;;;;;;;;;5014920;28;20030;-72
2021/07/17 09:08:44;;;;;;;40.95;31.85;;;;;;;;;;5041424;28;20032;-67
2021/07/17 09:11:10;;;;;;;39.28;28.92;;;;;;;;;;5054548;28;20064;-71
2021/07/17 09:13:36;;;;;;;40.50;30.33;;;;;;;;;;5054307;28;20102;-69
2021/07/17 09:16:12;;;;;;;40.17;28.50;;;;;;;;;;5053177;28;20017;-68
2021/07/17 09:18:47;;;;;;;34.67;27.80;;;;;;;;;;5054246;28;20044;-69
2021/07/17 09:21:17;;;;;;;34.40;28.73;;;;;;;;;;5054353;28;20051;-69
2021/07/17 09:23:45;;;;;;;39.88;29.60;;;;;;;;;;5054268;28;20481;-66
2021/07/17 09:26:20;;;;;;;40.50;30.23;;;;;;;;;;5054096;28;20025;-68
2021/07/17 09:28:57;;;;;;;36.40;27.23;;;;;;;;;;5033221;28;20113;-70
2021/07/17 09:31:24;;;;;;;42.28;30.30;;;;;;;;;;5034119;28;20017;-69
2021/07/17 09:33:51;;;;;;;42.15;31.92;;;;;;;;;;5034019;28;20036;-68
2021/07/17 09:36:17;;;;;;;39.38;30.25;;;;;;;;;;5033944;28;20025;-73
2021/07/17 09:38:49;;;;;;;40.97;29.60;;;;;;;;;;5032688;28;20474;-68
2021/07/17 09:41:17;;;;;;;41.13;31.33;;;;;;;;;;5032762;28;20025;-68
2021/07/17 09:43:43;;;;;;;43.70;30.25;;;;;;;;;;5033953;28;20500;-69
2021/07/17 09:46:18;;;;;;;41.95;28.67;;;;;;;;;;5033640;28;20482;-68
2021/07/17 09:49:03;;;;;;;40.30;29.58;;;;;;;;;;5033679;28;20121;-68
2021/07/17 09:51:31;;;;;;;42.97;28.98;;;;;;;;;;5033538;28;20461;-67
2021/07/17 09:54:00;;;;;;;40.67;29.30;;;;;;;;;;5032499;28;20438;-68
2021/07/17 09:56:27;;;;;;;39.13;28.80;;;;;;;;;;5033771;28;20036;-70
2021/07/17 09:58:55;;;;;;;43.33;32.22;;;;;;;;;;5033375;28;20029;-69
2021/07/17 10:01:23;;;;;;;44.17;33.35;;;;;;;;;;5032829;28;20163;-69
2021/07/17 10:03:50;;;;;;;45.70;33.35;;;;;;;;;;5032052;28;20029;-67
2021/07/17 10:06:33;;;;;;;53.33;37.90;;;;;;;;;;5033644;28;20366;-67
2021/07/17 10:09:00;;;;;;;52.85;38.78;;;;;;;;;;5033545;28;20026;-67
2021/07/17 10:11:27;;;;;;;55.10;38.53;;;;;;;;;;5033555;28;20052;-67
2021/07/17 10:13:54;;;;;;;59.28;40.00;;;;;;;;;;5033464;28;20113;-68
2021/07/17 10:16:22;;;;;;;53.75;38.50;;;;;;;;;;5033431;28;20032;-66
2021/07/17 10:18:49;;;;;;;53.13;39.22;;;;;;;;;;5033402;28;20506;-67
2021/07/17 10:21:15;;;;;;;49.70;37.83;;;;;;;;;;5033337;28;20097;-67
2021/07/17 10:23:42;;;;;;;54.35;37.90;;;;;;;;;;5031871;28;20470;-69
2021/07/17 10:26:08;;;;;;;55.45;40.47;;;;;;;;;;5033355;28;20017;-70
2021/07/17 10:28:35;;;;;;;52.65;39.78;;;;;;;;;;5033068;28;20079;-71
2021/07/17 10:31:02;;;;;;;51.45;38.40;;;;;;;;;;5032877;28;20036;-66
2021/07/17 10:33:31;;;;;;;55.92;37.78;;;;;;;;;;5033170;28;20037;-67
2021/07/17 10:35:59;;;;;;;41.70;31.80;;;;;;;;;;5033122;28;20033;-67
2021/07/17 10:38:26;;;;;;;50.45;36.47;;;;;;;;;;5033100;28;20034;-66
2021/07/17 10:40:54;;;;;;;50.35;35.88;;;;;;;;;;5033155;28;20032;-66
2021/07/17 10:43:21;;;;;;;44.97;35.58;;;;;;;;;;5033056;28;20108;-69
2021/07/17 10:45:47;;;;;;;45.83;34.97;;;;;;;;;;5033045;28;20439;-67
2021/07/17 10:48:26;;;;;;;44.80;34.35;;;;;;;;;;5032591;28;20068;-65
2021/07/17 10:50:52;;;;;;;44.35;34.83;;;;;;;;;;5034044;28;20021;-68
2021/07/17 10:53:37;;;;;;;44.33;33.75;;;;;;;;;;5033901;28;20057;-69
2021/07/17 10:56:22;;;;;;;45.92;34.30;;;;;;;;;;5032899;28;20705;-69
2021/07/17 10:58:48;;;;;;;39.00;31.23;;;;;;;;;;5031613;28;20033;-71
2021/07/17 11:01:14;;;;;;;37.22;27.85;;;;;;;;;;5033137;28;20355;-69
2021/07/17 11:03:43;;;;;;;31.95;27.50;;;;;;;;;;5031233;28;20025;-66
2021/07/17 11:06:30;;;;;;;35.30;28.95;;;;;;;;;;5032608;28;20037;-68
2021/07/17 11:08:57;;;;;;;40.85;29.40;;;;;;;;;;5032417;28;20017;-70
2021/07/17 11:11:35;;;;;;;36.97;29.95;;;;;;;;;;5032936;28;20021;-68
2021/07/17 11:14:10;;;;;;;38.30;29.92;;;;;;;;;;5036566;28;20505;-70
2021/07/17 11:16:54;;;;;;;36.85;28.63;;;;;;;;;;5035491;28;20033;-66
2021/07/17 11:19:25;;;;;;;33.97;28.17;;;;;;;;;;5035304;28;20087;-68
2021/07/17 11:21:51;;;;;;;26.67;23.83;;;;;;;;;;5036666;28;20026;-71
2021/07/17 11:24:17;;;;;;;31.55;24.45;;;;;;;;;;5036642;28;20024;-68
2021/07/17 11:26:44;;;;;;;29.67;24.48;;;;;;;;;;5035848;28;20028;-69
2021/07/17 11:29:14;;;;;;;27.17;22.35;;;;;;;;;;5036506;28;20052;-72
2021/07/17 11:31:43;;;;;;;26.52;22.08;;;;;;;;;;5036384;28;20062;-67
2021/07/17 11:34:14;;;;;;;29.38;22.85;;;;;;;;;;5036285;28;20032;-69
2021/07/17 11:36:45;;;;;;;27.85;20.08;;;31.90;76.90;;;;;;5036288;28;20025;-67
2021/07/17 11:39:13;;;;;;;23.08;20.48;;;;;;;;;;5036386;28;20029;-68
2021/07/17 11:41:39;;;;;;;24.92;22.17;;;;;;;;;;5035941;28;20435;-67
2021/07/17 11:44:06;;;;;;;26.13;21.75;;;;;;;;;;5034501;28;20541;-69
2021/07/17 11:46:32;;;;;;;29.30;23.00;;;;;;;;;;5035184;28;20128;-67
2021/07/17 11:49:06;;;;;;;28.48;23.30;;;;;;;;;;5035804;28;20033;-69
2021/07/17 11:51:34;;;;;;;29.55;21.48;;;;;;;;;;5034236;28;20430;-68
2021/07/17 11:54:00;;;;;;;25.85;22.80;;;;;;;;;;5035188;28;20092;-68
2021/07/17 11:56:27;;;;;;;27.52;23.90;;;;;;;;;;5034656;28;20052;-68
2021/07/17 11:59:12;;;;;;;31.63;24.38;;;;;;;;;;5034651;28;20071;-68
2021/07/17 12:01:39;;;;;;;30.10;26.30;;;;;;;;;;5035879;28;20040;-72
2021/07/17 12:04:05;;;;;;;32.22;25.90;;;;;;;;;;5035492;28;20097;-69
2021/07/17 12:06:34;;;;;;;31.52;27.20;;;;;;;;;;5034363;28;20022;-69
2021/07/17 12:09:10;;;;;;;31.45;25.88;;;;;;;;;;5035751;28;20056;-69
2021/07/17 12:11:36;;;;;;;34.05;25.20;;;;;;;;;;5034516;28;20025;-69
2021/07/17 12:14:18;;;;;;;34.78;25.15;;;;;;;;;;5035950;28;20101;-69
2021/07/17 12:16:45;;;;;;;28.88;22.95;;;;;;;;;;5035312;28;20082;-69
2021/07/17 12:19:17;;;;;;;31.27;23.33;;;;;;;;;;5034333;28;20117;-69
2021/07/17 12:21:44;;;;;;;28.58;23.65;;;;;;;;;;5035609;28;20084;-67
2021/07/17 12:24:10;;;;;;;31.65;23.90;;;;;;;;;;5033192;28;20095;-67
2021/07/17 12:26:36;;;;;;;29.40;24.67;;;;;;;;;;5035553;28;20029;-69
2021/07/17 12:29:02;;;;;;;31.67;24.30;;;;;;;;;;5035439;28;20025;-67
2021/07/17 12:31:28;;;;;;;30.92;24.35;;;;;;;;;;5034162;28;20013;-68
2021/07/17 12:33:54;;;;;;;33.95;26.58;;;;;;;;;;5034690;28;20032;-66
2021/07/17 12:36:22;;;;;;;36.25;28.30;;;;;;;;;;5034698;28;20056;-69
2021/07/17 12:38:52;;;;;;;34.10;28.33;;;;;;;;;;5035458;28;20474;-71
2021/07/17 12:41:19;;;;;;;35.05;27.42;;;;;;;;;;5035190;28;20029;-69
2021/07/17 12:43:47;;;;;;;32.05;26.27;;;;;;;;;;5033591;28;20025;-70
2021/07/17 12:46:17;;;;;;;35.03;27.48;;;;;;;;;;5050613;28;20060;-68
2021/07/17 12:48:49;;;;;;;35.97;27.93;;;;;;;;;;5054897;28;20024;-69
2021/07/17 12:51:36;;;;;;;32.20;25.30;;;;;;;;;;5054706;28;20640;-69
2021/07/17 12:54:04;;;;;;;29.30;24.23;;;;;;;;;;5054616;28;20056;-69
2021/07/17 12:56:50;;;;;;;29.92;22.67;;;;;;;;;;5054623;28;20017;-70
2021/07/17 12:59:25;;;;;;;25.25;18.08;;;;;;;;;;5040910;28;20087;-70
2021/07/17 13:01:53;;;;;;;23.67;13.13;;;;;;;;;;5054756;28;20105;-68
2021/07/17 13:04:21;;;;;;;28.35;10.57;;;;;;;;;;5054722;28;20029;-67
2021/07/17 13:07:04;;;;;;;20.30;10.63;;;;;;;;;;5054655;28;20029;-67
2021/07/17 13:09:31;;;;;;;26.77;9.52;;;;;;;;;;5054644;28;20049;-69
2021/07/17 13:11:58;;;;;;;21.95;7.53;;;;;;;;;;5054585;28;20096;-71
2021/07/17 13:14:25;;;;;;;17.88;7.50;;;;;;;;;;5053328;28;20072;-69
2021/07/17 13:16:52;;;;;;;20.20;8.65;;;;;;;;;;5054132;28;20132;-70
2021/07/17 13:19:18;;;;;;;18.05;6.47;;;;;;;;;;5054365;28;20028;-70
2021/07/17 13:21:46;;;;;;;16.23;7.22;;;;;;;;;;5054373;28;20029;-67
2021/07/17 13:24:16;;;;;;;17.42;7.10;;;;;;;;;;5053176;28;20024;-68
2021/07/17 13:27:02;;;;;;;12.60;8.40;;;;;;;;;;5051763;28;20066;-68
2021/07/17 13:29:29;;;;;;;14.35;8.05;;;;;;;;;;5054290;28;20025;-69
2021/07/17 13:32:00;;;;;;;20.13;7.63;;;;;;;;;;5053022;28;20377;-70
2021/07/17 13:34:27;;;;;;;12.20;7.95;;;;;;;;;;5052549;28;20424;-68
2021/07/17 13:37:09;;;;;;;13.30;7.47;;;;;;;;;;5053946;28;20028;-68
2021/07/17 13:39:54;;;;;;;13.82;8.75;;;;;;;;;;5054223;28;20027;-71
2021/07/17 13:42:22;;;;;;;14.43;8.00;;;;;;;;;;5054005;28;20028;-64
2021/07/17 13:44:48;;;;;;;16.00;9.20;;;;;;;;;;5053954;28;20056;-63
2021/07/17 13:47:18;;;;;;;13.48;8.88;;;;;;;;;;5053440;28;20501;-69
2021/07/17 13:49:45;;;;;;;16.17;9.18;;;;;;;;;;5052517;28;20017;-69
2021/07/17 13:52:34;;;;;;;12.88;7.40;;;;;;;;;;5053783;28;20412;-69
2021/07/17 13:55:04;;;;;;;12.88;7.30;;;;;;;;;;5053827;28;20135;-71
2021/07/17 13:57:34;;;;;;;9.65;7.15;;;;;;;;;;5053657;28;20021;-71
2021/07/17 14:00:02;;;;;;;12.40;8.25;;;;;;;;;;5053689;28;20029;-69
2021/07/17 14:02:27;;;;;;;10.25;7.05;;;31.00;81.00;;;;;;5053515;28;20021;-69
2021/07/17 14:04:53;;;;;;;7.93;6.07;;;31.60;78.90;;;;;;5053659;28;20036;-69
2021/07/17 14:07:20;;;;;;;7.22;5.38;;;;;;;;;;5053530;28;20029;-70
2021/07/17 14:09:49;;;;;;;7.35;5.43;;;;;;;;;;5053868;28;20028;-70
2021/07/17 14:12:15;;;;;;;5.55;4.80;;;;;;;;;;5053117;28;20351;-70
2021/07/17 14:14:41;;;;;;;8.50;5.28;;;;;;;;;;5053110;28;20432;-69
2021/07/17 14:17:08;;;;;;;8.73;5.10;;;;;;;;;;5045624;28;20116;-68
2021/07/17 14:19:34;;;;;;;9.43;5.03;;;;;;;;;;5033091;28;20025;-69
2021/07/17 14:22:00;;;;;;;9.48;5.47;;;;;;;;;;5031772;28;20252;-69